createdAt,value
2022-10-20T00:01:14.611Z,56.95
2022-10-20T00:03:42.940Z,56.94
2022-10-20T00:06:13.761Z,57.27
2022-10-20T00:08:43.608Z,57.65
2022-10-20T00:11:13.767Z,57.98
2022-10-20T00:13:44.894Z,58.36
2022-10-20T00:16:13.352Z,58.80
2022-10-20T00:18:42.029Z,59.00
2022-10-20T00:21:11.785Z,59.03
2022-10-20T00:23:39.837Z,59.25
2022-10-20T00:26:12.678Z,59.56
2022-10-20T00:28:42.228Z,59.98
2022-10-20T00:31:11.831Z,60.44
2022-10-20T00:33:40.380Z,60.81
2022-10-20T00:36:10.294Z,60.79
2022-10-20T00:38:38.427Z,61.01
2022-10-20T00:41:06.985Z,60.87
2022-10-20T00:43:49.530Z,61.14
2022-10-20T00:46:21.395Z,61.02
2022-10-20T00:48:53.765Z,61.21
2022-10-20T00:51:26.580Z,61.39
2022-10-20T00:54:00.378Z,61.88
2022-10-20T00:56:28.733Z,62.15
2022-10-20T00:58:58.274Z,62.18
2022-10-20T01:01:27.063Z,62.58
2022-10-20T01:04:14.029Z,62.65
2022-10-20T01:06:42.225Z,62.42
2022-10-20T01:09:10.564Z,62.65
2022-10-20T01:11:48.442Z,62.86
2022-10-20T01:14:32.850Z,62.43
2022-10-20T01:17:09.043Z,62.86
2022-10-20T01:20:06.789Z,63.83
2022-10-20T01:22:53.720Z,64.53
2022-10-20T01:25:32.599Z,65.25
2022-10-20T01:28:07.490Z,65.51
2022-10-20T01:30:40.581Z,65.85
2022-10-20T01:33:21.359Z,66.12
2022-10-20T01:36:01.063Z,66.26
2022-10-20T01:38:35.516Z,66.09
2022-10-20T01:41:11.625Z,66.62
2022-10-20T01:43:44.607Z,66.58
2022-10-20T01:46:16.056Z,67.06
2022-10-20T01:48:45.220Z,67.84
2022-10-20T01:51:13.333Z,68.04
2022-10-20T01:53:41.481Z,68.12
2022-10-20T01:56:19.494Z,68.36
2022-10-20T01:59:22.123Z,68.40
2022-10-20T02:02:06.973Z,69.00
2022-10-20T02:04:48.842Z,69.53
2022-10-20T02:07:24.873Z,70.16
2022-10-20T02:09:57.012Z,70.35
2022-10-20T02:12:29.383Z,70.62
2022-10-20T02:14:59.681Z,70.78
2022-10-20T02:17:30.253Z,70.76
2022-10-20T02:19:59.529Z,71.08
2022-10-20T02:22:28.271Z,71.19
2022-10-20T02:24:56.420Z,71.72
2022-10-20T02:27:29.085Z,71.85
2022-10-20T02:30:02.414Z,71.90
2022-10-20T02:32:33.601Z,71.80
2022-10-20T02:35:06.698Z,71.96
2022-10-20T02:37:35.766Z,72.52
2022-10-20T02:40:05.095Z,72.74
2022-10-20T02:42:33.337Z,73.00
2022-10-20T02:45:04.177Z,73.49
2022-10-20T02:47:32.277Z,73.69
2022-10-20T02:50:01.722Z,74.04
2022-10-20T02:52:30.017Z,74.04
2022-10-20T02:54:58.139Z,74.05
2022-10-20T02:57:26.459Z,74.03
2022-10-20T02:59:54.682Z,73.96
2022-10-20T03:02:24.379Z,74.15
2022-10-20T03:04:52.476Z,74.08
2022-10-20T03:07:20.530Z,74.25
2022-10-20T03:09:49.195Z,74.45
2022-10-20T03:12:17.258Z,74.35
2022-10-20T03:14:45.533Z,74.65
2022-10-20T03:17:13.593Z,74.93
2022-10-20T03:19:43.064Z,74.86
2022-10-20T03:22:12.175Z,75.21
2022-10-20T03:24:40.316Z,75.51
2022-10-20T03:27:08.723Z,75.77
2022-10-20T03:29:36.887Z,76.15
2022-10-20T03:32:05.191Z,76.35
2022-10-20T03:34:33.348Z,76.52
2022-10-20T03:37:02.923Z,76.59
2022-10-20T03:39:49.717Z,76.82
2022-10-20T03:42:17.810Z,76.74
2022-10-20T03:44:46.214Z,76.82
2022-10-20T03:47:14.740Z,76.96
2022-10-20T03:49:42.916Z,76.79
2022-10-20T03:52:12.423Z,76.65
2022-10-20T03:54:41.109Z,77.05
2022-10-20T03:57:09.239Z,76.75
2022-10-20T03:59:37.328Z,76.92
2022-10-20T04:02:05.548Z,76.71
2022-10-20T04:04:33.688Z,76.79
2022-10-20T04:07:01.683Z,76.58
2022-10-20T04:09:31.281Z,76.55
2022-10-20T04:11:59.901Z,76.11
2022-10-20T04:14:28.195Z,75.87
2022-10-20T04:16:56.326Z,76.11
2022-10-20T04:19:24.598Z,76.06
2022-10-20T04:21:52.776Z,75.99
2022-10-20T04:24:20.911Z,76.08
2022-10-20T04:29:24.625Z,75.68
2022-10-20T04:31:52.958Z,75.33
2022-10-20T04:34:20.988Z,75.10
2022-10-20T04:36:49.160Z,74.89
2022-10-20T04:39:17.416Z,74.45
2022-10-20T04:41:45.490Z,74.13
2022-10-20T04:44:15.208Z,73.88
2022-10-20T04:46:43.500Z,73.33
2022-10-20T04:49:12.749Z,72.95
2022-10-20T04:51:40.843Z,72.90
2022-10-20T04:54:09.038Z,72.34
2022-10-20T04:56:37.104Z,72.30
2022-10-20T04:59:09.548Z,72.31
2022-10-20T05:01:42.527Z,72.21
2022-10-20T05:04:11.740Z,71.99
2022-10-20T05:06:40.131Z,71.59
2022-10-20T05:09:08.956Z,71.78
2022-10-20T05:11:38.202Z,71.55
2022-10-20T05:14:07.719Z,71.65
2022-10-20T05:16:36.134Z,71.56
2022-10-20T05:19:05.729Z,71.91
2022-10-20T05:21:35.121Z,71.70
2022-10-20T05:24:05.913Z,71.59
2022-10-20T05:26:37.567Z,71.24
2022-10-20T05:29:08.117Z,71.17
2022-10-20T05:31:39.001Z,71.00
2022-10-20T05:34:27.285Z,71.07
2022-10-20T05:36:55.719Z,71.16
2022-10-20T05:39:23.778Z,71.16
2022-10-20T05:41:51.890Z,71.11
2022-10-20T05:44:20.081Z,71.33
2022-10-20T05:46:48.158Z,71.28
2022-10-20T05:49:18.260Z,71.05
2022-10-20T05:51:47.525Z,71.32
2022-10-20T05:54:16.171Z,71.56
2022-10-20T05:56:44.644Z,71.50
2022-10-20T05:59:12.962Z,71.06
2022-10-20T06:01:48.318Z,71.04
2022-10-20T06:04:23.577Z,71.05
2022-10-20T06:06:52.548Z,71.12
2022-10-20T06:09:21.417Z,71.18
2022-10-20T06:11:50.259Z,71.02
2022-10-20T06:14:19.531Z,70.88
2022-10-20T06:16:47.617Z,70.60
2022-10-20T06:19:15.808Z,70.06
2022-10-20T06:21:45.294Z,69.72
2022-10-20T06:24:14.015Z,69.52
2022-10-20T06:26:45.531Z,69.14
2022-10-20T06:29:16.155Z,69.26
2022-10-20T06:31:45.967Z,68.26
2022-10-20T06:34:16.060Z,68.11
2022-10-20T06:36:46.351Z,67.46
2022-10-20T06:39:17.655Z,67.37
2022-10-20T06:41:48.617Z,66.66
2022-10-20T06:44:16.657Z,66.89
2022-10-20T06:46:45.444Z,66.23
2022-10-20T06:49:13.809Z,65.92
2022-10-20T06:51:42.584Z,65.31
2022-10-20T06:54:12.108Z,64.83
2022-10-20T06:56:41.361Z,64.12
2022-10-20T06:59:10.527Z,63.86
2022-10-20T07:01:40.403Z,63.86
2022-10-20T07:04:11.629Z,63.64
2022-10-20T07:06:42.144Z,62.95
2022-10-20T07:09:15.581Z,62.82
2022-10-20T07:11:44.484Z,61.67
2022-10-20T07:14:14.401Z,61.24
2022-10-20T07:16:42.640Z,61.17
2022-10-20T07:19:11.065Z,61.12
2022-10-20T07:21:41.578Z,60.89
2022-10-20T07:24:14.528Z,60.69
2022-10-20T07:26:43.245Z,60.30
2022-10-20T07:29:13.094Z,59.94
2022-10-20T07:31:43.496Z,59.64
2022-10-20T07:34:25.184Z,58.88
2022-10-20T07:36:54.633Z,58.46
2022-10-20T07:39:24.499Z,58.72
2022-10-20T07:41:53.076Z,58.49
2022-10-20T07:44:21.529Z,57.84
2022-10-20T07:46:49.599Z,57.48
2022-10-20T07:52:06.219Z,57.06
2022-10-20T07:54:35.667Z,56.22
2022-10-20T07:57:03.896Z,56.33
2022-10-20T07:59:32.074Z,56.12
2022-10-20T08:02:00.953Z,56.49
2022-10-20T08:04:31.635Z,55.41
2022-10-20T08:07:00.756Z,56.07
2022-10-20T08:09:28.950Z,54.99
2022-10-20T08:11:58.590Z,54.56
2022-10-20T08:14:31.882Z,53.14
2022-10-20T08:17:00.911Z,53.48
2022-10-20T08:19:41.422Z,53.32
2022-10-20T08:22:09.527Z,52.41
2022-10-20T08:24:37.991Z,51.84
2022-10-20T08:27:07.500Z,51.35
2022-10-20T08:29:35.706Z,50.68
2022-10-20T08:32:04.003Z,51.60
2022-10-20T08:34:32.426Z,50.78
2022-10-20T08:37:01.098Z,51.17
2022-10-20T08:39:29.174Z,49.89
2022-10-20T08:42:14.424Z,49.91
2022-10-20T08:44:47.317Z,49.49
2022-10-20T08:47:24.166Z,50.08
2022-10-20T08:49:54.239Z,48.63
2022-10-20T08:52:24.960Z,48.42
2022-10-20T08:54:56.807Z,48.38
2022-10-20T08:57:27.228Z,48.49
2022-10-20T09:00:08.093Z,48.73
2022-10-20T09:02:37.219Z,48.35
2022-10-20T09:05:08.280Z,46.93
2022-10-20T09:07:38.350Z,46.89
2022-10-20T09:10:19.317Z,46.37
2022-10-20T09:12:49.775Z,46.50
2022-10-20T09:15:21.162Z,46.98
2022-10-20T09:17:53.098Z,47.08
2022-10-20T09:20:25.625Z,46.25
2022-10-20T09:22:53.815Z,45.80
2022-10-20T09:25:24.147Z,45.93
2022-10-20T09:27:53.682Z,45.43
2022-10-20T09:30:26.394Z,45.33
2022-10-20T09:32:54.642Z,44.78
2022-10-20T09:35:28.838Z,44.12
2022-10-20T09:38:19.141Z,44.12
2022-10-20T09:40:58.755Z,44.84
2022-10-20T09:43:28.609Z,44.15
2022-10-20T09:46:06.463Z,43.44
2022-10-20T09:48:37.937Z,43.22
2022-10-20T09:51:08.662Z,43.33
2022-10-20T09:53:42.724Z,41.87
2022-10-20T09:56:11.140Z,40.54
2022-10-20T09:58:42.191Z,41.41
2022-10-20T10:01:18.022Z,41.37
2022-10-20T10:03:47.941Z,41.73
2022-10-20T10:06:30.018Z,41.02
2022-10-20T10:09:00.076Z,40.98
2022-10-20T10:11:32.886Z,39.74
2022-10-20T10:14:01.322Z,39.08
2022-10-20T10:16:41.723Z,39.28
2022-10-20T10:19:18.578Z,39.08
2022-10-20T10:21:49.758Z,38.76
2022-10-20T10:24:41.988Z,39.55
2022-10-20T10:27:25.420Z,38.44
2022-10-20T10:29:53.701Z,38.97
2022-10-20T10:32:27.659Z,38.75
2022-10-20T10:35:23.887Z,38.88
2022-10-20T10:37:55.685Z,37.29
2022-10-20T10:40:30.260Z,36.83
2022-10-20T10:43:29.542Z,37.28
2022-10-20T10:46:01.388Z,37.22
2022-10-20T10:48:58.747Z,37.50
2022-10-20T10:51:42.690Z,38.19
2022-10-20T10:54:24.371Z,37.66
2022-10-20T10:56:56.020Z,37.74
2022-10-20T10:59:28.720Z,37.48
2022-10-20T11:02:20.837Z,36.22
2022-10-20T11:05:21.676Z,36.10
2022-10-20T11:07:56.905Z,36.89
2022-10-20T11:10:33.266Z,36.90
2022-10-20T11:13:13.975Z,36.77
2022-10-20T11:15:56.246Z,35.91
2022-10-20T11:18:42.782Z,36.14
2022-10-20T11:21:23.771Z,36.09
2022-10-20T11:24:07.352Z,36.79
2022-10-20T11:26:37.787Z,37.26
2022-10-20T11:29:10.370Z,36.20
2022-10-20T11:31:43.608Z,36.31
2022-10-20T11:34:15.808Z,36.43
2022-10-20T11:36:49.048Z,36.27
2022-10-20T11:39:26.439Z,37.06
2022-10-20T11:42:02.289Z,36.76
2022-10-20T11:44:38.372Z,35.96
2022-10-20T11:47:11.511Z,36.16
2022-10-20T11:49:41.525Z,34.82
2022-10-20T11:52:38.134Z,35.31
2022-10-20T11:55:41.659Z,35.45
2022-10-20T11:58:32.653Z,34.76
2022-10-20T12:01:24.016Z,34.93
2022-10-20T12:04:24.306Z,35.05
2022-10-20T12:07:18.369Z,34.94
2022-10-20T12:10:01.309Z,34.66
2022-10-20T12:12:35.562Z,34.12
2022-10-20T12:15:21.515Z,34.37
2022-10-20T12:17:51.252Z,33.62
2022-10-20T12:20:51.697Z,33.35
2022-10-20T12:24:03.130Z,34.15
2022-10-20T12:27:17.866Z,33.25
2022-10-20T12:29:54.657Z,33.17
2022-10-20T12:32:58.518Z,34.44
2022-10-20T12:36:01.940Z,34.19
2022-10-20T12:38:32.910Z,34.69
2022-10-20T12:41:02.794Z,34.85
2022-10-20T12:43:38.244Z,34.51
2022-10-20T12:46:10.597Z,34.75
2022-10-20T12:48:46.083Z,34.41
2022-10-20T12:51:25.331Z,34.74
2022-10-20T12:54:03.070Z,35.00
2022-10-20T12:56:38.214Z,34.59
2022-10-20T12:59:39.502Z,34.96
2022-10-20T13:02:51.048Z,35.16
2022-10-20T13:05:50.184Z,35.17
2022-10-20T13:08:37.832Z,34.29
2022-10-20T13:11:42.029Z,34.42
2022-10-20T13:14:29.035Z,34.54
2022-10-20T13:17:06.832Z,35.01
2022-10-20T13:19:40.364Z,35.59
2022-10-20T13:22:39.248Z,35.40
2022-10-20T13:25:15.929Z,34.91
2022-10-20T13:27:45.862Z,35.17
2022-10-20T13:30:21.899Z,35.46
2022-10-20T13:33:25.426Z,34.77
2022-10-20T13:35:57.198Z,35.48
2022-10-20T13:38:31.816Z,34.75
2022-10-20T13:41:10.530Z,35.17
2022-10-20T13:43:56.637Z,34.38
2022-10-20T13:46:41.327Z,34.40
2022-10-20T13:49:30.762Z,34.25
2022-10-20T13:52:04.697Z,34.42
2022-10-20T13:54:37.214Z,33.76
2022-10-20T13:57:07.076Z,33.96
2022-10-20T13:59:39.532Z,34.26
2022-10-20T14:02:25.780Z,34.26
2022-10-20T14:05:03.957Z,33.86
2022-10-20T14:07:38.129Z,34.22
2022-10-20T14:10:08.112Z,34.51
2022-10-20T14:12:36.635Z,34.74
2022-10-20T14:15:09.778Z,34.77
2022-10-20T14:17:40.716Z,34.56
2022-10-20T14:20:23.624Z,34.44
2022-10-20T14:22:54.288Z,34.62
2022-10-20T14:25:23.191Z,34.76
2022-10-20T14:27:53.665Z,35.02
2022-10-20T14:30:24.105Z,35.13
2022-10-20T14:32:53.056Z,35.11
2022-10-20T14:35:27.193Z,34.86
2022-10-20T14:37:59.754Z,34.78
2022-10-20T14:40:34.750Z,35.14
2022-10-20T14:45:34.397Z,35.68
2022-10-20T14:48:03.728Z,35.91
2022-10-20T14:50:36.835Z,36.26
2022-10-20T14:53:19.086Z,36.67
2022-10-20T14:55:47.241Z,36.71
2022-10-20T14:58:39.870Z,36.91
2022-10-20T15:01:31.531Z,37.07
2022-10-20T15:04:16.402Z,37.21
2022-10-20T15:06:45.540Z,37.50
2022-10-20T15:09:26.799Z,37.56
2022-10-20T15:11:54.999Z,37.98
2022-10-20T15:14:24.115Z,37.84
2022-10-20T15:16:54.092Z,38.07
2022-10-20T15:19:39.937Z,38.55
2022-10-20T15:24:49.009Z,38.96
2022-10-20T15:27:19.169Z,39.15
2022-10-20T15:29:51.136Z,39.24
2022-10-20T15:32:20.974Z,39.98
2022-10-20T15:34:49.389Z,39.85
2022-10-20T15:37:17.426Z,39.95
2022-10-20T15:39:45.686Z,39.92
2022-10-20T15:42:13.942Z,40.33
2022-10-20T15:44:42.106Z,40.87
2022-10-20T15:47:11.362Z,41.14
2022-10-20T15:49:40.966Z,41.53
2022-10-20T15:52:09.401Z,41.87
2022-10-20T15:54:37.490Z,42.08
2022-10-20T15:57:05.848Z,42.42
2022-10-20T15:59:33.966Z,43.03
2022-10-20T16:02:02.039Z,43.26
2022-10-20T16:04:31.824Z,43.45
2022-10-20T16:07:03.035Z,44.12
2022-10-20T16:09:31.393Z,44.30
2022-10-20T16:11:59.500Z,44.08
2022-10-20T16:14:27.698Z,44.08
2022-10-20T16:16:58.299Z,43.97
2022-10-20T16:19:26.573Z,44.21
2022-10-20T16:21:55.057Z,44.41
2022-10-20T16:24:24.923Z,44.51
2022-10-20T16:26:53.194Z,44.56
2022-10-20T16:29:21.634Z,44.95
2022-10-20T16:31:49.970Z,45.01
2022-10-20T16:34:20.551Z,45.15
2022-10-20T16:36:51.461Z,45.35
2022-10-20T16:39:20.033Z,45.37
2022-10-20T16:41:52.824Z,45.57
2022-10-20T16:44:22.027Z,45.42
2022-10-20T16:46:50.251Z,45.44
2022-10-20T16:49:19.433Z,45.89
2022-10-20T16:51:47.674Z,46.18
2022-10-20T16:54:16.055Z,46.47
2022-10-20T16:56:45.598Z,46.58
2022-10-20T16:59:15.274Z,47.01
2022-10-20T17:01:43.655Z,47.47
2022-10-20T17:04:18.880Z,47.95
2022-10-20T17:06:48.338Z,48.59
2022-10-20T17:09:16.968Z,48.82
2022-10-20T17:11:45.273Z,49.33
2022-10-20T17:14:14.883Z,49.94
2022-10-20T17:16:43.245Z,50.21
2022-10-20T17:19:12.619Z,50.66
2022-10-20T17:21:40.813Z,51.21
2022-10-20T17:24:13.709Z,51.68
2022-10-20T17:26:43.515Z,52.41
2022-10-20T17:29:11.894Z,53.12
2022-10-20T17:31:41.523Z,53.67
2022-10-20T17:34:10.513Z,53.90
2022-10-20T17:36:38.707Z,54.60
2022-10-20T17:39:08.780Z,55.43
2022-10-20T17:41:37.398Z,55.66
2022-10-20T17:44:08.945Z,55.51
2022-10-20T17:46:37.279Z,55.69
2022-10-20T17:49:07.494Z,56.34
2022-10-20T17:51:35.859Z,56.23
2022-10-20T17:54:05.020Z,56.24
2022-10-20T17:56:36.600Z,57.19
2022-10-20T17:59:07.766Z,57.64
2022-10-20T18:01:37.992Z,58.11
2022-10-20T18:04:10.350Z,58.66
2022-10-20T18:06:38.876Z,58.40
2022-10-20T18:09:11.005Z,58.42
2022-10-20T18:11:41.394Z,58.58
2022-10-20T18:14:09.819Z,59.42
2022-10-20T18:16:39.769Z,59.73
2022-10-20T18:19:10.191Z,60.17
2022-10-20T18:21:39.167Z,60.33
2022-10-20T18:24:09.774Z,59.99
2022-10-20T18:26:38.721Z,59.95
2022-10-20T18:29:08.994Z,60.08
2022-10-20T18:31:38.629Z,60.86
2022-10-20T18:34:10.761Z,61.06
2022-10-20T18:36:43.473Z,61.12
2022-10-20T18:39:16.149Z,61.73
2022-10-20T18:41:46.462Z,63.26
2022-10-20T18:44:16.270Z,63.00
2022-10-20T18:46:46.214Z,63.69
2022-10-20T18:49:19.745Z,63.77
2022-10-20T18:51:48.747Z,63.36
2022-10-20T18:54:18.157Z,62.98
2022-10-20T18:56:46.424Z,62.74
2022-10-20T18:59:17.265Z,63.05
2022-10-20T19:01:46.064Z,62.79
2022-10-20T19:04:16.347Z,63.06
2022-10-20T19:06:46.009Z,62.53
2022-10-20T19:09:16.975Z,62.67
2022-10-20T19:11:46.411Z,62.75
2022-10-20T19:14:15.426Z,63.06
2022-10-20T19:16:47.167Z,63.01
2022-10-20T19:19:16.874Z,63.42
2022-10-20T19:21:46.121Z,63.59
2022-10-20T19:24:17.453Z,63.73
2022-10-20T19:26:57.129Z,64.46
2022-10-20T19:29:36.353Z,64.67
2022-10-20T19:32:06.798Z,64.94
2022-10-20T19:34:39.412Z,65.63
2022-10-20T19:37:08.386Z,65.96
2022-10-20T19:39:39.037Z,66.01
2022-10-20T19:42:08.828Z,66.23
2022-10-20T19:44:37.719Z,67.00
2022-10-20T19:47:06.944Z,67.19
2022-10-20T19:49:37.913Z,67.67
2022-10-20T19:52:06.755Z,67.36
2022-10-20T19:54:36.182Z,68.03
2022-10-20T19:57:06.654Z,68.40
2022-10-20T19:59:35.016Z,68.72
2022-10-20T20:02:03.621Z,69.36
2022-10-20T20:04:35.065Z,69.28
2022-10-20T20:07:05.113Z,69.42
2022-10-20T20:09:34.025Z,69.46
2022-10-20T20:12:02.241Z,69.64
2022-10-20T20:14:30.357Z,70.61
2022-10-20T20:16:58.634Z,70.83
2022-10-20T20:19:26.882Z,70.84
2022-10-20T20:21:54.954Z,71.44
2022-10-20T20:24:24.775Z,71.85
2022-10-20T20:26:53.113Z,72.24
2022-10-20T20:29:21.189Z,71.73
2022-10-20T20:31:50.376Z,72.05
2022-10-20T20:34:18.695Z,72.79
2022-10-20T20:36:46.785Z,73.60
2022-10-20T20:39:14.818Z,73.74
2022-10-20T20:41:44.525Z,73.79
2022-10-20T20:44:12.629Z,74.70
2022-10-20T20:46:40.758Z,74.77
2022-10-20T20:49:08.867Z,74.69
2022-10-20T20:51:37.147Z,74.96
2022-10-20T20:54:05.416Z,75.79
2022-10-20T20:56:33.777Z,75.62
2022-10-20T20:59:03.385Z,76.40
2022-10-20T21:01:32.822Z,76.89
2022-10-20T21:04:04.086Z,76.89
2022-10-20T21:06:56.483Z,77.02
2022-10-20T21:09:22.828Z,77.37
2022-10-20T21:11:51.003Z,77.31
2022-10-20T21:14:20.540Z,77.86
2022-10-20T21:16:51.259Z,77.98
2022-10-20T21:19:20.254Z,78.41
2022-10-20T21:21:52.307Z,78.68
2022-10-20T21:24:20.566Z,79.38
2022-10-20T21:26:48.896Z,80.03
2022-10-20T21:29:18.607Z,81.26
2022-10-20T21:31:48.420Z,82.01
2022-10-20T21:34:16.675Z,82.90
2022-10-20T21:36:44.964Z,83.40
2022-10-20T21:39:15.972Z,82.92
2022-10-20T21:41:45.295Z,82.91
2022-10-20T21:44:15.620Z,82.38
2022-10-20T21:46:47.628Z,81.77
2022-10-20T21:49:19.902Z,82.12
2022-10-20T21:51:50.078Z,81.71
2022-10-20T21:56:54.721Z,81.41
2022-10-20T21:59:25.009Z,81.49
2022-10-20T22:01:54.796Z,81.57
2022-10-20T22:04:28.222Z,81.10
2022-10-20T22:06:56.681Z,80.62
2022-10-20T22:09:25.295Z,81.04
2022-10-20T22:11:56.862Z,81.67
2022-10-20T22:14:25.574Z,81.37
2022-10-20T22:16:55.723Z,81.77
2022-10-20T22:19:25.995Z,81.35
2022-10-20T22:21:54.825Z,82.08
2022-10-20T22:24:24.000Z,82.74
2022-10-20T22:26:53.188Z,83.40
2022-10-20T22:29:22.027Z,83.66
2022-10-20T22:31:51.295Z,83.88
2022-10-20T22:34:19.565Z,84.73
2022-10-20T22:36:49.001Z,84.92
2022-10-20T22:39:17.138Z,84.40
2022-10-20T22:41:45.326Z,84.92
2022-10-20T22:44:14.613Z,85.24
2022-10-20T22:46:42.702Z,85.35
2022-10-20T22:49:10.787Z,85.54
2022-10-20T22:51:38.888Z,86.52
2022-10-20T22:54:09.046Z,85.91
2022-10-20T22:56:37.196Z,86.47
2022-10-20T22:59:05.343Z,86.81
2022-10-20T23:01:33.410Z,86.96
2022-10-20T23:04:01.823Z,87.11
2022-10-20T23:06:29.922Z,87.06
2022-10-20T23:08:58.176Z,87.60
2022-10-20T23:11:27.761Z,87.41
2022-10-20T23:13:55.822Z,87.19
2022-10-20T23:18:58.168Z,87.48
2022-10-20T23:21:26.907Z,88.17
2022-10-20T23:23:54.962Z,89.27
2022-10-20T23:26:23.133Z,89.15
2022-10-20T23:28:53.291Z,89.46
2022-10-20T23:31:32.213Z,89.90
2022-10-20T23:34:00.327Z,90.24
2022-10-20T23:36:29.083Z,90.30
2022-10-20T23:38:57.335Z,90.20
2022-10-20T23:41:25.616Z,90.83
2022-10-20T23:43:55.088Z,91.16
2022-10-20T23:46:23.567Z,91.22
2022-10-20T23:48:51.981Z,91.65
2022-10-20T23:51:20.062Z,92.34
2022-10-20T23:53:48.127Z,92.51
2022-10-20T23:56:16.258Z,92.42
2022-10-20T23:58:44.516Z,92.54
